Time;durP1;ratioP1;P1;durP2;ratioP2;P2;SDS_P1;SDS_P2;PMS_P1;PMS_P2;Temp;Humidity;BMP_temperature;BMP_pressure;BME280_temperature;BME280_humidity;BME280_pressure;Samples;Min_cycle;Max_cycle;Signal;HPM_P1;HPM_P2
2021/09/14 00:02:15;;;;;;;0.55;0.55;;;15.60;90.20;;;;;;5115632;28;20096;-73
2021/09/14 00:04:40;;;;;;;1.63;0.98;;;15.60;90.20;;;;;;5115144;28;20020;-74
2021/09/14 00:07:06;;;;;;;1.05;0.80;;;15.60;90.30;;;;;;5115560;28;20028;-74
2021/09/14 00:09:32;;;;;;;0.82;0.70;;;15.60;90.30;;;;;;5115251;28;20074;-74
2021/09/14 00:11:58;;;;;;;0.70;0.60;;;15.50;90.30;;;;;;5114677;28;20058;-74
2021/09/14 00:14:24;;;;;;;1.00;0.80;;;15.50;90.30;;;;;;5115471;28;20034;-74
2021/09/14 00:16:49;;;;;;;0.65;0.65;;;15.50;90.30;;;;;;5115269;28;20035;-73
2021/09/14 00:19:16;;;;;;;0.80;0.80;;;15.50;90.30;;;;;;5114846;28;20126;-74
2021/09/14 00:21:41;;;;;;;0.47;0.47;;;15.50;90.30;;;;;;5115366;28;20103;-74
2021/09/14 00:24:07;;;;;;;0.70;0.60;;;15.50;90.30;;;;;;5115190;28;20106;-74
2021/09/14 00:26:32;;;;;;;1.00;0.90;;;15.50;90.30;;;;;;5115104;28;20380;-74
2021/09/14 00:28:58;;;;;;;0.98;0.82;;;15.50;90.30;;;;;;5115203;28;20034;-74
2021/09/14 00:31:25;;;;;;;0.77;0.70;;;15.40;90.30;;;;;;5114990;28;20062;-74
2021/09/14 00:33:50;;;;;;;0.60;0.60;;;15.40;90.30;;;;;;5114652;28;20027;-75
2021/09/14 00:36:16;;;;;;;1.20;1.00;;;15.40;90.30;;;;;;5114989;28;20049;-72
2021/09/14 00:38:41;;;;;;;0.80;0.63;;;15.40;90.30;;;;;;5115039;28;20054;-72
2021/09/14 00:41:07;;;;;;;1.15;0.98;;;15.40;90.30;;;;;;5114747;28;20495;-72
2021/09/14 00:43:33;;;;;;;0.70;0.70;;;15.30;90.30;;;;;;5114844;28;20035;-75
2021/09/14 00:45:58;;;;;;;0.60;0.55;;;15.40;90.30;;;;;;5114710;28;20361;-74
2021/09/14 00:48:24;;;;;;;0.95;0.80;;;15.40;90.30;;;;;;5114430;28;20055;-74
2021/09/14 00:50:49;;;;;;;0.70;0.70;;;15.30;90.30;;;;;;5114715;28;20353;-75
2021/09/14 00:53:15;;;;;;;2.00;0.70;;;15.30;90.30;;;;;;5114842;28;20034;-72
2021/09/14 00:55:41;;;;;;;1.10;0.82;;;15.30;90.30;;;;;;5114606;28;20019;-74
2021/09/14 00:58:07;;;;;;;1.58;0.90;;;15.30;90.30;;;;;;5096368;28;20015;-74
2021/09/14 01:00:32;;;;;;;0.43;0.43;;;15.30;90.40;;;;;;5114500;28;20026;-75
2021/09/14 01:02:59;;;;;;;0.80;0.80;;;15.30;90.30;;;;;;5114068;28;20032;-72
2021/09/14 01:05:25;;;;;;;0.73;0.70;;;15.30;90.30;;;;;;5114412;28;20456;-72
2021/09/14 01:07:52;;;;;;;0.80;0.80;;;15.30;90.30;;;;;;5114420;28;20027;-72
2021/09/14 01:10:18;;;;;;;1.27;1.02;;;15.30;90.30;;;;;;5114107;28;20035;-72
2021/09/14 01:12:43;;;;;;;0.80;0.63;;;15.20;90.30;;;;;;5095902;28;20085;-72
2021/09/14 01:15:09;;;;;;;1.00;0.88;;;15.20;90.30;;;;;;5114242;28;20023;-74
2021/09/14 01:17:35;;;;;;;1.25;1.15;;;15.20;90.30;;;;;;5113861;28;20469;-75
2021/09/14 01:20:01;;;;;;;1.10;1.00;;;15.20;90.30;;;;;;5114073;28;20077;-72
2021/09/14 01:22:31;;;;;;;0.98;0.80;;;15.20;90.30;;;;;;5113858;28;20046;-72
2021/09/14 01:24:57;;;;;;;1.35;1.08;;;15.20;90.40;;;;;;5114155;28;20353;-75
2021/09/14 01:27:23;;;;;;;1.20;0.93;;;15.20;90.40;;;;;;5114047;28;20031;-75
2021/09/14 01:32:33;;;;;;;1.42;1.20;;;15.20;90.40;;;;;;5114359;28;20066;-75
2021/09/14 01:35:11;;;;;;;1.17;0.93;;;15.10;90.40;;;;;;5113925;28;20051;-75
2021/09/14 01:37:37;;;;;;;1.70;1.20;;;15.10;90.40;;;;;;5114025;28;20028;-72
2021/09/14 01:40:03;;;;;;;1.60;0.98;;;15.10;90.40;;;;;;5113841;28;20072;-72
2021/09/14 01:42:29;;;;;;;1.00;0.82;;;15.10;90.40;;;;;;5113693;28;20030;-72
2021/09/14 01:44:54;;;;;;;0.88;0.88;;;15.10;90.40;;;;;;5113302;28;20024;-74
2021/09/14 01:47:20;;;;;;;1.77;1.20;;;15.10;90.40;;;;;;5113760;28;20030;-75
2021/09/14 01:49:45;;;;;;;1.33;1.00;;;15.00;90.40;;;;;;5113702;28;20023;-75
2021/09/14 01:52:11;;;;;;;1.40;1.02;;;15.00;90.40;;;;;;5095580;28;20027;-72
2021/09/14 01:54:36;;;;;;;1.80;1.55;;;15.00;90.40;;;;;;5113624;28;20081;-74
2021/09/14 01:57:02;;;;;;;2.10;1.20;;;15.00;90.40;;;;;;5113860;28;20094;-74
2021/09/14 01:59:30;;;;;;;1.50;1.10;;;15.00;90.50;;;;;;5094982;28;20016;-75
2021/09/14 02:02:09;;;;;;;1.15;0.75;;;14.90;90.40;;;;;;5113555;28;20127;-74
2021/09/14 02:04:44;;;;;;;1.15;1.08;;;14.90;90.40;;;;;;5095433;28;20456;-74
2021/09/14 02:07:27;;;;;;;1.77;1.20;;;14.90;90.50;;;;;;5095313;28;20427;-74
2021/09/14 02:45:04;;;;;;;1.33;0.90;;;14.70;90.50;;;;;;5117471;28;20476;-75
2021/09/14 02:58:42;;;;;;;1.80;1.13;;;14.60;90.60;;;;;;5116779;28;20065;-75
2021/09/14 03:01:09;;;;;;;1.70;1.17;;;14.60;90.60;;;;;;5116859;28;20110;-75
2021/09/14 03:03:36;;;;;;;1.25;1.10;;;14.60;90.60;;;;;;5116505;28;20027;-74
2021/09/14 03:06:02;;;;;;;1.52;0.80;;;14.60;90.60;;;;;;5098565;28;20106;-74
2021/09/14 03:08:27;;;;;;;4.28;1.63;;;14.60;90.60;;;;;;5116782;28;20432;-75
2021/09/14 03:10:53;;;;;;;1.48;1.13;;;14.70;90.60;;;;;;5116596;28;20043;-74
2021/09/14 03:13:19;;;;;;;1.25;1.10;;;14.70;90.60;;;;;;5116185;28;20023;-74
2021/09/14 03:15:44;;;;;;;1.52;1.30;;;14.70;90.60;;;;;;5116428;28;20392;-74
2021/09/14 03:18:10;;;;;;;2.95;1.65;;;14.70;90.50;;;;;;5116410;28;20422;-74
2021/09/14 03:20:35;;;;;;;1.52;0.93;;;14.70;90.50;;;;;;5116465;28;20044;-74
2021/09/14 03:23:01;;;;;;;1.20;1.10;;;14.70;90.50;;;;;;5116331;28;20028;-74
2021/09/14 03:25:26;;;;;;;1.48;1.00;;;14.60;90.50;;;;;;5116308;28;20042;-74
2021/09/14 03:27:52;;;;;;;2.03;1.30;;;14.60;90.50;;;;;;5115944;28;20020;-74
2021/09/14 03:30:17;;;;;;;2.20;1.42;;;14.60;90.60;;;;;;5116261;28;20361;-74
2021/09/14 03:32:45;;;;;;;1.58;1.48;;;14.60;90.60;;;;;;5116138;28;20020;-74
2021/09/14 03:35:11;;;;;;;1.38;0.98;;;14.60;90.60;;;;;;5116227;28;20016;-74
2021/09/14 03:37:37;;;;;;;2.22;1.42;;;14.60;90.50;;;;;;5097850;28;20483;-74
2021/09/14 03:40:03;;;;;;;1.67;1.48;;;14.60;90.90;;;;;;5097642;28;20063;-74
2021/09/14 03:42:29;;;;;;;2.22;1.40;;;14.60;90.60;;;;;;5115509;28;20101;-74
2021/09/14 03:44:54;;;;;;;1.40;1.25;;;14.60;90.60;;;;;;5115971;28;20472;-74
2021/09/14 03:47:20;;;;;;;1.45;1.25;;;14.60;90.60;;;;;;5114913;28;20106;-74
2021/09/14 03:49:45;;;;;;;1.38;1.27;;;14.50;90.60;;;;;;5116074;28;20020;-74
2021/09/14 03:52:10;;;;;;;1.52;1.35;;;14.50;90.60;;;;;;5115756;28;20391;-75
2021/09/14 03:54:36;;;;;;;2.65;1.50;;;14.50;90.60;;;;;;5115795;28;20026;-74
2021/09/14 03:57:02;;;;;;;1.27;1.17;;;14.60;90.60;;;;;;5115394;28;20102;-74
2021/09/14 03:59:27;;;;;;;2.20;1.30;;;14.50;90.60;;;;;;5115643;28;20420;-74
2021/09/14 04:01:56;;;;;;;1.40;1.30;;;14.50;90.60;;;;;;5115667;28;20027;-74
2021/09/14 04:04:30;;;;;;;1.10;1.00;;;14.50;90.60;;;;;;5097297;28;20076;-74
2021/09/14 04:07:02;;;;;;;1.73;1.38;;;14.50;90.70;;;;;;5115569;28;20012;-74
2021/09/14 04:09:27;;;;;;;1.67;1.45;;;14.50;90.60;;;;;;5112629;28;20044;-74
2021/09/14 04:11:53;;;;;;;1.63;1.20;;;14.50;90.70;;;;;;5115457;28;20034;-74
2021/09/14 04:14:18;;;;;;;1.55;1.23;;;14.40;90.70;;;;;;5115337;28;20024;-74
2021/09/14 04:16:44;;;;;;;2.20;1.08;;;14.40;90.70;;;;;;5115337;28;20030;-74
2021/09/14 04:19:09;;;;;;;2.58;1.75;;;14.40;90.70;;;;;;5115400;28;20149;-74
2021/09/14 04:21:35;;;;;;;1.73;1.38;;;14.50;90.70;;;;;;5115263;28;20090;-74
2021/09/14 04:24:00;;;;;;;1.88;1.40;;;14.40;90.70;;;;;;5114745;28;20036;-74
2021/09/14 04:26:26;;;;;;;2.13;1.30;;;14.40;90.70;;;;;;5115272;28;20027;-74
2021/09/14 04:28:51;;;;;;;2.05;1.63;;;14.40;90.70;;;;;;5114952;28;20053;-74
2021/09/14 04:31:17;;;;;;;2.63;1.55;;;14.40;90.70;;;;;;5115153;28;20458;-74
2021/09/14 04:33:42;;;;;;;1.92;1.40;;;14.50;90.70;;;;;;5096747;28;20035;-74
2021/09/14 04:36:08;;;;;;;2.88;1.88;;;14.40;90.60;;;;;;5115088;28;20020;-74
2021/09/14 04:38:33;;;;;;;2.03;1.60;;;14.40;90.70;;;;;;5114532;28;20019;-74
2021/09/14 04:40:59;;;;;;;1.65;1.10;;;14.40;90.70;;;;;;5114692;28;20030;-74
2021/09/14 04:43:24;;;;;;;2.20;1.63;;;14.40;90.70;;;;;;5115204;28;20036;-74
2021/09/14 04:45:50;;;;;;;2.38;1.63;;;14.40;90.70;;;;;;5114775;28;20057;-74
2021/09/14 04:48:17;;;;;;;2.38;1.90;;;14.40;90.70;;;;;;5114846;28;20053;-74
2021/09/14 04:50:42;;;;;;;2.20;1.63;;;14.40;90.70;;;;;;5114899;28;20023;-75
2021/09/14 04:53:08;;;;;;;2.25;1.45;;;14.40;90.70;;;;;;5114334;28;20028;-72
2021/09/14 04:55:33;;;;;;;2.45;1.55;;;14.40;90.70;;;;;;5114570;28;20099;-75
2021/09/14 04:57:59;;;;;;;1.95;1.40;;;14.40;90.70;;;;;;5114227;28;20019;-74
2021/09/14 05:00:25;;;;;;;2.92;1.83;;;14.40;90.70;;;;;;5114578;28;20023;-74
2021/09/14 05:02:50;;;;;;;1.95;1.40;;;14.40;90.70;;;;;;5114287;28;20038;-73
2021/09/14 05:05:16;;;;;;;1.73;1.35;;;14.40;90.60;;;;;;5114372;28;20019;-73
2021/09/14 05:07:41;;;;;;;2.50;1.70;;;14.40;90.70;;;;;;5095804;28;20022;-76
2021/09/14 05:10:07;;;;;;;2.10;1.33;;;14.40;90.70;;;;;;5114200;28;20057;-75
2021/09/14 05:12:33;;;;;;;3.55;2.10;;;14.40;90.60;;;;;;5114231;28;20106;-75
2021/09/14 05:14:58;;;;;;;1.85;1.38;;;14.40;90.60;;;;;;5114156;28;20571;-74
2021/09/14 05:17:24;;;;;;;1.40;1.10;;;14.40;90.60;;;;;;5114200;28;20438;-76
2021/09/14 05:19:51;;;;;;;1.42;1.17;;;14.40;90.60;;;;;;5114134;28;20098;-76
2021/09/14 05:22:20;;;;;;;1.65;1.30;;;14.40;90.60;;;;;;5113766;28;20024;-75
2021/09/14 05:24:46;;;;;;;2.83;1.38;;;14.40;90.60;;;;;;5114130;28;20463;-76
2021/09/14 05:27:11;;;;;;;2.22;1.65;;;14.40;90.60;;;;;;5130205;27;20023;-75
2021/09/14 05:29:36;;;;;;;1.60;1.27;;;14.40;90.60;;;;;;5114058;28;20365;-76
2021/09/14 05:32:02;;;;;;;2.25;1.50;;;14.40;90.60;;;;;;5113796;28;20051;-75
2021/09/14 05:34:28;;;;;;;2.10;1.25;;;14.40;90.60;;;;;;5114068;28;20024;-75
2021/09/14 05:36:54;;;;;;;1.83;1.40;;;14.40;90.60;;;;;;5129415;27;20115;-76
2021/09/14 05:39:20;;;;;;;2.47;1.77;;;14.40;90.60;;;;;;5113801;28;20102;-76
2021/09/14 05:41:46;;;;;;;2.45;1.63;;;14.40;90.60;;;;;;5113802;28;20045;-77
2021/09/14 05:44:11;;;;;;;2.55;1.75;;;14.40;90.70;;;;;;5113872;28;20023;-76
2021/09/14 05:46:37;;;;;;;1.50;1.40;;;14.40;90.70;;;;;;5113668;28;20016;-75
2021/09/14 05:49:03;;;;;;;1.58;1.30;;;14.40;90.60;;;;;;5113867;28;20050;-76
2021/09/14 05:51:29;;;;;;;2.38;1.70;;;14.40;90.60;;;;;;5113323;28;20028;-76
2021/09/14 05:53:54;;;;;;;1.75;1.30;;;14.50;90.60;;;;;;5113747;28;20472;-75
2021/09/14 05:56:20;;;;;;;2.75;1.90;;;14.50;90.60;;;;;;5113741;28;20020;-76
2021/09/14 05:58:45;;;;;;;2.25;1.70;;;14.50;90.60;;;;;;5095488;28;20092;-75
2021/09/14 06:01:12;;;;;;;1.42;1.10;;;14.60;90.60;;;;;;5113576;28;20012;-75
2021/09/14 06:03:37;;;;;;;1.80;1.58;;;14.60;90.50;;;;;;5113583;28;20432;-75
2021/09/14 06:06:03;;;;;;;1.88;1.33;;;14.70;90.50;;;;;;5113249;28;20059;-76
2021/09/14 06:08:28;;;;;;;1.20;1.10;;;14.80;90.50;;;;;;5113618;28;20031;-77
2021/09/14 06:10:54;;;;;;;2.00;1.58;;;14.90;90.40;;;;;;5115070;28;20085;-76
2021/09/14 06:13:19;;;;;;;1.65;1.15;;;14.90;90.40;;;;;;5117757;28;20422;-75
2021/09/14 06:15:45;;;;;;;2.85;2.13;;;15.00;90.40;;;;;;5117718;28;20020;-76
2021/09/14 06:18:11;;;;;;;1.77;1.42;;;15.00;90.40;;;;;;5133592;27;20074;-75
2021/09/14 06:20:37;;;;;;;1.85;1.55;;;15.10;90.40;;;;;;5117258;28;20023;-76
2021/09/14 06:23:02;;;;;;;1.60;1.20;;;15.20;90.30;;;;;;5117596;28;20063;-75
2021/09/14 06:25:28;;;;;;;2.72;1.63;;;15.20;90.30;;;;;;5117354;28;20015;-75
2021/09/14 06:27:53;;;;;;;1.70;1.30;;;15.30;90.30;;;;;;5117402;28;20031;-75
2021/09/14 06:30:19;;;;;;;2.10;1.50;;;15.30;90.30;;;;;;5099151;28;20430;-75
2021/09/14 06:32:45;;;;;;;1.45;1.15;;;15.40;90.30;;;;;;5117474;28;20039;-74
2021/09/14 06:35:10;;;;;;;1.98;1.30;;;15.50;90.30;;;;;;5116780;28;20457;-74
2021/09/14 06:37:36;;;;;;;1.50;1.17;;;15.60;90.20;;;;;;5098992;28;20396;-74
2021/09/14 06:40:03;;;;;;;2.15;1.45;;;15.60;90.20;;;;;;5117244;28;20037;-74
2021/09/14 06:42:29;;;;;;;2.00;1.20;;;15.70;90.20;;;;;;5131377;22;20048;-81
2021/09/14 06:44:55;;;;;;;2.55;1.60;;;15.80;90.20;;;;;;5117284;28;20357;-81
2021/09/14 06:47:21;;;;;;;1.25;1.08;;;15.90;90.10;;;;;;5117296;28;20016;-82
2021/09/14 06:49:46;;;;;;;2.58;1.73;;;15.90;90.10;;;;;;5098371;28;20023;-80
2021/09/14 06:52:12;;;;;;;2.03;1.20;;;16.00;90.10;;;;;;5117155;28;20376;-82
2021/09/14 06:54:38;;;;;;;1.40;1.23;;;16.00;90.10;;;;;;5117087;28;20023;-80
2021/09/14 06:57:04;;;;;;;2.15;1.33;;;16.00;90.10;;;;;;5098829;28;20026;-81
2021/09/14 06:59:29;;;;;;;1.98;1.38;;;16.10;90.10;;;;;;5132898;27;20049;-82
2021/09/14 07:01:55;;;;;;;1.58;1.17;;;16.20;90.10;;;;;;5098324;28;20547;-80
2021/09/14 07:04:20;;;;;;;1.38;1.05;;;16.20;90.10;;;;;;5116407;28;20095;-81
2021/09/14 07:06:46;;;;;;;2.13;1.45;;;16.30;90.10;;;;;;5116854;28;20056;-81
2021/09/14 07:09:12;;;;;;;2.28;1.40;;;16.40;90.00;;;;;;5098519;28;20026;-80
2021/09/14 07:11:38;;;;;;;1.67;1.42;;;16.40;90.00;;;;;;5098526;28;20051;-81
2021/09/14 07:14:03;;;;;;;1.67;1.38;;;16.50;90.00;;;;;;5098286;28;20027;-80
2021/09/14 07:16:29;;;;;;;2.55;1.40;;;16.50;90.00;;;;;;5116901;28;20019;-81
2021/09/14 07:18:54;;;;;;;1.90;1.35;;;16.50;90.00;;;;;;5117228;28;20100;-81
2021/09/14 07:21:20;;;;;;;2.15;1.80;;;16.50;90.00;;;;;;5124340;28;20023;-82
2021/09/14 07:23:46;;;;;;;1.27;1.20;;;16.50;90.10;;;;;;5116678;28;20028;-82
2021/09/14 07:26:11;;;;;;;1.88;1.40;;;16.50;90.10;;;;;;5116692;28;20019;-81
2021/09/14 07:28:37;;;;;;;2.00;1.30;;;16.50;90.10;;;;;;5116465;28;20032;-82
2021/09/14 07:31:03;;;;;;;2.50;1.55;;;16.50;90.00;;;;;;5132364;27;20106;-82
2021/09/14 07:33:29;;;;;;;2.97;1.60;;;16.60;90.00;;;;;;5097592;28;20114;-81
2021/09/14 07:35:54;;;;;;;2.28;1.63;;;16.60;90.00;;;;;;5116394;28;20112;-82
2021/09/14 07:38:20;;;;;;;1.60;1.50;;;16.60;90.10;;;;;;5116167;28;20030;-81
2021/09/14 07:40:45;;;;;;;2.97;1.40;;;16.60;90.10;;;;;;5116357;28;20031;-81
2021/09/14 07:43:11;;;;;;;1.95;1.60;;;16.60;90.00;;;;;;5115767;28;20438;-82
2021/09/14 07:45:36;;;;;;;2.38;1.63;;;16.60;90.00;;;;;;5116119;28;20068;-82
2021/09/14 07:48:02;;;;;;;2.58;1.88;;;16.70;90.00;;;;;;5115537;28;20482;-82
2021/09/14 07:50:28;;;;;;;3.00;1.50;;;16.70;90.00;;;;;;5116125;28;20012;-82
2021/09/14 07:52:53;;;;;;;1.90;1.48;;;16.80;90.00;;;;;;5097633;28;20064;-87
2021/09/14 07:55:20;;;;;;;2.10;1.45;;;16.80;90.00;;;;;;5099956;28;20087;-87
2021/09/14 07:57:46;;;;;;;1.38;1.27;;;16.90;90.00;;;;;;5099273;28;20019;-86
2021/09/14 08:00:12;;;;;;;2.90;1.73;;;16.90;89.90;;;;;;5116796;28;20026;-85
2021/09/14 08:02:38;;;;;;;2.15;1.40;;;17.00;89.90;;;;;;5116251;28;20035;-86
2021/09/14 08:05:05;;;;;;;1.33;1.20;;;17.10;89.90;;;;;;5116750;28;20472;-87
2021/09/14 08:07:30;;;;;;;2.72;1.73;;;17.10;89.80;;;;;;5098628;28;20161;-87
2021/09/14 08:09:56;;;;;;;2.65;1.75;;;17.10;89.60;;;;;;5116690;28;20061;-85
2021/09/14 08:12:21;;;;;;;1.67;1.52;;;17.20;89.80;;;;;;5116674;28;20532;-86
2021/09/14 08:14:47;;;;;;;1.83;1.50;;;17.20;89.90;;;;;;5116627;28;20012;-86
2021/09/14 08:17:15;;;;;;;1.90;1.50;;;17.10;89.90;;;;;;5097789;28;20016;-86
2021/09/14 08:19:42;;;;;;;2.22;1.50;;;17.20;89.90;;;;;;5098293;28;20020;-87
2021/09/14 08:22:09;;;;;;;1.55;1.40;;;17.20;90.00;;;;;;5115927;28;20016;-87
2021/09/14 08:24:37;;;;;;;1.95;1.77;;;17.20;89.90;;;;;;5116592;28;20055;-87
2021/09/14 08:27:03;;;;;;;1.60;1.40;;;17.30;89.90;;;;;;5116549;28;20472;-86
2021/09/14 08:29:29;;;;;;;2.22;1.75;;;17.30;89.80;;;;;;5116235;28;20022;-86
2021/09/14 08:31:55;;;;;;;2.17;1.63;;;17.30;89.80;;;;;;5115639;28;20028;-88
2021/09/14 08:34:20;;;;;;;2.20;1.80;;;17.40;89.80;;;;;;5098997;28;20037;-92
2021/09/14 08:36:45;;;;;;;3.00;1.85;;;17.50;89.70;;;;;;5133494;27;20015;-89
2021/09/14 08:39:11;;;;;;;2.40;1.58;;;17.50;89.60;;;;;;5118326;28;20016;-93
2021/09/14 08:41:37;;;;;;;1.40;1.30;;;17.60;89.50;;;;;;5117684;28;20123;-89
2021/09/14 08:44:03;;;;;;;2.17;1.70;;;17.60;89.50;;;;;;5116414;28;20046;-88
2021/09/14 08:46:29;;;;;;;1.30;1.20;;;17.70;89.40;;;;;;5115867;28;20073;-88
2021/09/14 08:48:57;;;;;;;1.95;1.65;;;17.80;89.30;;;;;;5116209;28;20019;-87
2021/09/14 08:51:22;;;;;;;2.05;1.60;;;17.90;89.30;;;;;;5119503;28;20050;-94
2021/09/14 08:53:48;;;;;;;1.88;1.50;;;18.00;89.30;;;;;;5125431;28;20024;-96
2021/09/14 08:56:13;;;;;;;2.55;1.73;;;18.00;89.20;;;;;;5130956;28;20049;-96
2021/09/14 08:58:39;;;;;;;1.85;1.50;;;18.10;89.20;;;;;;5110587;28;20023;-95
2021/09/14 09:01:14;;;;;;;1.60;1.30;;;18.20;89.20;;;;;;5116293;28;20035;-86
2021/09/14 09:03:40;;;;;;;2.67;1.52;;;18.30;89.10;;;;;;5097598;28;20032;-82
2021/09/14 09:06:06;;;;;;;1.67;1.30;;;18.40;89.10;;;;;;5115513;28;20019;-84
2021/09/14 09:08:33;;;;;;;1.58;1.30;;;18.50;89.00;;;;;;5098769;28;20066;-85
2021/09/14 09:11:12;;;;;;;1.65;1.55;;;18.70;88.90;;;;;;5117575;28;20023;-84
2021/09/14 09:13:44;;;;;;;1.65;1.23;;;18.80;88.60;;;;;;5097159;28;20032;-84
2021/09/14 09:16:29;;;;;;;1.88;1.40;;;18.90;88.60;;;;;;5114636;28;20022;-85
2021/09/14 09:18:57;;;;;;;1.90;1.73;;;19.10;88.50;;;;;;5115367;28;20016;-84
2021/09/14 09:21:29;;;;;;;2.05;1.85;;;19.20;88.50;;;;;;5097098;28;20027;-84
2021/09/14 09:24:00;;;;;;;2.05;1.48;;;19.30;88.40;;;;;;5097218;28;20030;-82
2021/09/14 09:26:43;;;;;;;1.92;1.73;;;19.40;88.40;;;;;;5115370;28;20107;-86
2021/09/14 09:29:12;;;;;;;1.73;1.60;;;19.40;88.40;;;;;;5096542;28;20015;-86
2021/09/14 09:31:44;;;;;;;1.92;1.58;;;19.50;88.50;;;;;;5097121;28;20372;-89
2021/09/14 09:34:11;;;;;;;1.65;1.48;;;19.60;88.30;;;;;;5098252;28;20468;-90
2021/09/14 09:36:42;;;;;;;2.25;1.63;;;19.80;88.20;;;;;;5119352;28;20027;-83
2021/09/14 09:39:14;;;;;;;2.08;1.80;;;20.00;87.70;;;;;;5119990;28;20027;-90
2021/09/14 09:41:53;;;;;;;2.50;1.65;;;20.20;87.50;;;;;;5103686;28;20020;-90
2021/09/14 09:44:19;;;;;;;2.72;1.48;;;20.30;87.30;;;;;;5106928;28;20165;-93
2021/09/14 09:46:56;;;;;;;1.50;1.40;;;20.40;87.50;;;;;;5116483;28;20065;-90
2021/09/14 09:49:23;;;;;;;1.60;1.27;;;20.50;87.60;;;;;;5103426;28;20028;-95
2021/09/14 09:51:51;;;;;;;2.13;1.52;;;20.60;87.50;;;;;;5116579;28;20559;-92
2021/09/14 09:54:17;;;;;;;2.15;1.40;;;20.60;87.30;;;;;;5104718;28;20199;-96
2021/09/14 09:56:45;;;;;;;2.47;1.65;;;20.80;87.30;;;;;;5119747;28;20019;-90
2021/09/14 09:59:12;;;;;;;2.55;1.60;;;20.80;87.10;;;;;;5117189;28;20028;-87
2021/09/14 10:01:39;;;;;;;2.25;1.77;;;20.90;87.00;;;;;;5116182;28;20016;-92
2021/09/14 10:04:07;;;;;;;1.80;1.50;;;21.00;87.00;;;;;;5115861;28;20034;-94
2021/09/14 10:06:38;;;;;;;1.33;1.20;;;21.00;87.00;;;;;;5119216;28;20030;-96
2021/09/14 10:09:04;;;;;;;1.70;1.42;;;21.00;87.00;;;;;;5117641;28;20102;-94
2021/09/14 10:11:32;;;;;;;1.40;1.30;;;20.90;87.10;;;;;;5103999;28;20027;-94
2021/09/14 10:14:03;;;;;;;1.90;1.80;;;21.00;87.10;;;;;;5121538;28;20028;-95
2021/09/14 10:16:29;;;;;;;1.33;1.23;;;21.10;87.00;;;;;;5116992;28;20020;-94
2021/09/14 10:19:06;;;;;;;1.88;1.45;;;21.20;86.90;;;;;;5238298;22;20055;-93
2021/09/14 10:21:32;;;;;;;2.40;1.70;;;21.30;86.60;;;;;;5059577;28;20433;-90
2021/09/14 10:23:57;;;;;;;1.50;1.33;;;21.50;86.50;;;;;;5091424;28;20036;-90
2021/09/14 10:26:35;;;;;;;1.30;1.10;;;21.50;86.40;;;;;;5075528;28;20040;-92
2021/09/14 10:29:12;;;;;;;2.53;1.52;;;21.60;86.90;;;;;;5091227;28;20050;-85
2021/09/14 10:31:39;;;;;;;1.88;1.67;;;21.60;86.10;;;;;;5091765;28;20024;-87
2021/09/14 10:34:12;;;;;;;1.92;1.20;;;21.60;86.40;;;;;;5078313;28;20048;-84
2021/09/14 10:36:46;;;;;;;1.10;1.00;;;21.60;86.40;;;;;;5074407;28;20024;-85
2021/09/14 10:39:23;;;;;;;1.70;1.50;;;21.70;86.60;;;;;;5074030;28;20052;-86
2021/09/14 10:41:53;;;;;;;1.80;1.40;;;21.70;86.30;;;;;;5073305;28;20044;-84
2021/09/14 10:44:27;;;;;;;1.70;1.38;;;21.70;86.40;;;;;;5073933;28;20024;-85
2021/09/14 10:47:14;;;;;;;2.00;1.77;;;21.80;86.30;;;;;;5073390;28;20047;-86
2021/09/14 10:49:51;;;;;;;1.60;1.23;;;21.90;86.30;;;;;;5073257;28;20027;-85
2021/09/14 10:52:30;;;;;;;3.25;1.80;;;21.80;86.40;;;;;;5054801;28;20021;-85
2021/09/14 10:54:56;;;;;;;1.55;1.30;;;21.80;86.40;;;;;;5073194;28;20025;-83
2021/09/14 10:57:41;;;;;;;1.95;1.58;;;21.70;86.60;;;;;;5057036;28;20066;-86
2021/09/14 11:00:15;;;;;;;1.52;1.38;;;21.80;86.50;;;;;;5059277;28;20047;-86
2021/09/14 11:02:41;;;;;;;1.63;1.45;;;21.80;86.60;;;;;;5077367;28;20108;-87
2021/09/14 11:05:09;;;;;;;1.80;1.40;;;21.80;86.60;;;;;;5077222;28;20031;-88
2021/09/14 11:07:36;;;;;;;1.48;1.25;;;21.90;86.40;;;;;;5077533;28;20021;-86
2021/09/14 11:10:11;;;;;;;1.65;1.20;;;22.10;86.30;;;;;;5092783;28;20572;-87
2021/09/14 11:12:37;;;;;;;1.92;1.50;;;22.20;86.10;;;;;;5093347;28;20058;-88
2021/09/14 11:15:03;;;;;;;2.67;2.17;;;22.30;86.00;;;;;;5077089;28;20017;-87
2021/09/14 11:17:33;;;;;;;2.10;1.70;;;22.30;85.80;;;;;;5059408;28;20032;-91
2021/09/14 11:20:18;;;;;;;1.67;1.45;;;22.40;85.80;;;;;;5077165;28;20045;-87
2021/09/14 11:22:44;;;;;;;1.98;1.45;;;22.30;85.90;;;;;;5077043;28;20473;-90
2021/09/14 11:25:13;;;;;;;2.67;1.85;;;22.30;86.10;;;;;;5076930;28;20021;-87
2021/09/14 11:27:39;;;;;;;2.00;1.60;;;22.30;86.00;;;;;;5077250;28;20084;-89
2021/09/14 11:30:05;;;;;;;2.38;1.75;;;22.30;86.00;;;;;;5077070;28;20028;-89
2021/09/14 11:32:31;;;;;;;3.05;1.92;;;22.40;86.10;;;;;;5077560;28;20044;-90
2021/09/14 11:34:57;;;;;;;1.98;1.67;;;22.40;86.00;;;;;;5076914;28;20103;-86
2021/09/14 11:37:30;;;;;;;1.70;1.60;;;22.40;86.00;;;;;;5092471;28;20044;-88
2021/09/14 11:40:00;;;;;;;1.80;1.60;;;22.50;86.60;;;;;;5076335;28;20017;-87
2021/09/14 11:42:26;;;;;;;;;;;22.50;85.80;;;;;;5077685;28;20024;-87
2021/09/14 11:45:24;;;;;;;2.10;1.90;;;22.50;86.10;;;;;;5077274;28;19908;-87
2021/09/14 11:47:51;;;;;;;1.55;1.40;;;22.60;86.00;;;;;;5065506;28;20107;-87
2021/09/14 11:50:33;;;;;;;1.83;1.50;;;22.60;86.00;;;;;;5076629;28;20059;-88
2021/09/14 11:53:13;;;;;;;1.77;1.52;;;22.70;85.90;;;;;;5076990;28;20032;-87
2021/09/14 11:55:41;;;;;;;2.28;1.88;;;22.80;85.60;;;;;;5080116;28;20020;-86
2021/09/14 11:58:06;;;;;;;2.03;1.48;;;22.90;86.10;;;;;;5080333;28;20020;-86
2021/09/14 12:00:42;;;;;;;1.85;1.60;;;23.10;85.30;;;;;;5076317;28;20039;-88
2021/09/14 12:03:09;;;;;;;1.50;1.40;;;23.20;85.00;;;;;;5076672;28;20534;-88
2021/09/14 12:05:35;;;;;;;2.45;1.55;;;23.30;84.90;;;;;;5076352;28;20028;-86
2021/09/14 12:08:08;;;;;;;2.03;1.52;;;23.40;84.80;;;;;;5074646;28;20492;-85
2021/09/14 12:10:43;;;;;;;2.22;1.48;;;23.60;84.60;;;;;;5076607;28;20020;-87
2021/09/14 12:13:17;;;;;;;2.00;1.80;;;23.70;84.40;;;;;;5092036;28;20035;-87
2021/09/14 12:15:43;;;;;;;1.60;1.35;;;23.80;84.30;;;;;;5076112;28;20369;-87
2021/09/14 12:18:09;;;;;;;2.47;1.70;;;24.00;84.20;;;;;;5093077;28;20025;-88
2021/09/14 12:20:38;;;;;;;1.67;1.50;;;24.10;84.10;;;;;;5075402;28;20055;-87
2021/09/14 12:23:03;;;;;;;1.83;1.60;;;24.20;83.80;;;;;;5075418;28;20017;-87
2021/09/14 12:25:28;;;;;;;1.60;1.50;;;24.20;83.90;;;;;;5091657;28;20031;-89
2021/09/14 12:27:54;;;;;;;1.73;1.50;;;24.20;83.90;;;;;;5075761;28;20051;-88
2021/09/14 12:30:19;;;;;;;2.40;1.60;;;24.20;84.00;;;;;;5091448;28;20108;-87
2021/09/14 12:32:46;;;;;;;2.78;1.85;;;24.20;84.00;;;;;;5075603;28;20482;-84
2021/09/14 12:35:11;;;;;;;1.95;1.50;;;24.20;83.90;;;;;;5075991;28;20048;-86
2021/09/14 12:37:37;;;;;;;2.22;1.75;;;24.20;83.90;;;;;;5075523;28;20074;-88
2021/09/14 12:40:02;;;;;;;1.48;1.27;;;24.20;83.90;;;;;;5076482;28;20021;-88
2021/09/14 12:42:28;;;;;;;1.58;1.15;;;24.30;83.90;;;;;;5075111;28;20027;-85
2021/09/14 12:44:55;;;;;;;1.20;1.13;;;24.50;83.80;;;;;;5057030;28;20024;-84
2021/09/14 12:47:21;;;;;;;2.60;1.58;;;24.60;83.40;;;;;;5090543;28;20027;-87
2021/09/14 12:49:46;;;;;;;1.60;1.40;;;24.80;83.10;;;;;;5075053;28;20389;-86
2021/09/14 12:52:12;;;;;;;1.55;1.10;;;24.80;83.40;;;;;;5074724;28;20069;-86
2021/09/14 12:54:37;;;;;;;2.10;1.70;;;24.80;83.00;;;;;;5075325;28;20032;-86
2021/09/14 12:57:03;;;;;;;1.42;1.33;;;24.80;82.90;;;;;;5074780;28;20427;-86
2021/09/14 12:59:28;;;;;;;1.60;1.50;;;24.80;82.90;;;;;;5075071;28;20473;-87
2021/09/14 13:01:54;;;;;;;1.35;1.23;;;25.00;82.90;;;;;;5075016;28;20078;-89
2021/09/14 13:04:19;;;;;;;1.35;1.15;;;25.30;82.40;;;;;;5074802;28;20021;-87
2021/09/14 13:06:45;;;;;;;1.40;1.30;;;25.60;82.00;;;;;;5074561;28;20397;-86
2021/09/14 13:09:10;;;;;;;1.20;1.10;;;25.90;81.60;;;;;;5075200;28;20032;-88
2021/09/14 13:11:36;;;;;;;1.27;1.13;;;26.20;81.20;;;;;;5075229;28;20036;-88
2021/09/14 13:16:46;;;;;;;1.75;1.50;;;26.50;80.60;;;;;;5075019;28;20039;-87
2021/09/14 13:19:11;;;;;;;1.30;1.20;;;26.50;80.60;;;;;;5057354;28;20049;-87
2021/09/14 13:21:37;;;;;;;1.23;1.13;;;26.50;80.70;;;;;;5083804;28;20047;-84
2021/09/14 13:24:02;;;;;;;1.55;1.42;;;26.20;81.00;;;;;;5075052;28;20020;-88
2021/09/14 13:26:28;;;;;;;1.38;1.27;;;26.00;81.40;;;;;;5074637;28;20024;-88
2021/09/14 13:28:53;;;;;;;1.40;1.30;;;25.80;81.70;;;;;;5074605;28;20029;-86
2021/09/14 13:31:19;;;;;;;1.20;1.10;;;25.60;82.10;;;;;;5057008;28;20074;-88
2021/09/14 13:33:45;;;;;;;1.40;1.30;;;25.40;82.30;;;;;;5056649;28;20178;-87
2021/09/14 13:36:11;;;;;;;1.55;1.20;;;25.30;82.50;;;;;;5074290;28;20025;-85
2021/09/14 13:38:37;;;;;;;1.23;1.13;;;25.10;82.50;;;;;;5074492;28;20035;-87
2021/09/14 13:41:10;;;;;;;1.30;1.17;;;24.90;82.90;;;;;;5074470;28;20423;-87